Thursday, January 18, 2018, 8:50 PM EST
Back to Local

KITH, Ithaca, Ithaca Tompkins Regional Airport

Location: Ithaca, NY, United States Lat: 42.491
Local Time: 8:50 PM EST ( 1:50 GMT) Lon: -76.458
Time Zone: US/Eastern Elev: 1099 ft

Show me the last for .
Show Decoded

2018-01-18 19:56 METAR KITH 190056Z 08004KT 9SM CLR M16/M18 A3000 RMK AO2 SLP189 T11561178 =
2018-01-18 18:56 METAR KITH 182356Z 00000KT 10SM CLR M14/M17 A3001 RMK AO2 SLP187 T11391172 11056
                 21139 53005 =
2018-01-18 17:56 METAR KITH 182256Z 00000KT 10SM CLR M12/M16 A2999 RMK AO2 SLP180 T11221161 =
2018-01-18 16:56 METAR KITH 182156Z 33005KT 10SM SCT026 M08/M12 A2999 RMK AO2 SLP179 T10781122 =
2018-01-18 15:56 METAR KITH 182056Z 31008KT 10SM SCT026 M06/M12 A2999 RMK AO2 SLP178 T10611117
                 55010 =
2018-01-18 14:56 METAR KITH 181956Z 28007KT 10SM SCT030 M06/M12 A2999 RMK AO2 SLP178 T10561117 =
2018-01-18 13:56 METAR KITH 181856Z 30012KT 10SM SCT026 M06/M12 A3000 RMK AO2 SLP180 T10611117 =
2018-01-18 13:42 METAR KITH 181842Z 29011KT 10SM SCT027 M07/M12 A3000 RMK AO2 =
2018-01-18 12:56 METAR KITH 181756Z 27009KT 10SM OVC027 M07/M12 A3002 RMK AO2 SNB11E21 SLP190
                 P0000 60000 T10721122 11067 21194 58010 =
2018-01-18 11:56 METAR KITH 181656Z 30013KT 10SM OVC028 M08/M13 A3002 RMK AO2 SLP190 T10781128 =
2018-01-18 10:56 METAR KITH 181556Z 29007KT 10SM BKN028 M08/M13 A3005 RMK AO2 SNB33E43 SLP202
                 P0000 T10831133 =
2018-01-18 10:30 METAR KITH 181530Z 28010KT 10SM BKN026 M08/M14 A3006 RMK AO2 =
2018-01-18 10:05 METAR KITH 181505Z 28008KT 10SM SCT026 M09/M14 A3006 RMK AO2 =
2018-01-18 09:56 METAR KITH 181456Z 26006KT 10SM SCT026 M08/M14 A3005 RMK AO2 SLP201 T10831144
                 53009 =
2018-01-18 08:56 METAR KITH 181356Z 23005KT 10SM CLR M13/M15 A3004 RMK AO2 SLP197 T11331150 =
2018-01-18 07:56 METAR KITH 181256Z 00000KT 10SM CLR M19/M22 A3003 RMK AO2 SLP197 T11941217 =
2018-01-18 06:56 METAR KITH 181156Z 21006KT 10SM CLR M16/M17 A3002 RMK AO2 SLP192 70001 T11561172
                 11133 21178 55010 =
2018-01-18 06:30 METAR KITH 181130Z 20003KT 10SM CLR M16/M19 A3002 RMK AO2 =
2018-01-18 05:56 METAR KITH 181056Z AUTO 19005KT 10SM CLR M14/M16 A3002 RMK AO2 SLP190 T11391156
                 =
2018-01-18 04:56 METAR KITH 180956Z AUTO 16005KT 10SM CLR M16/M18 A3003 RMK AO2 SLP194 T11611178
                 =
2018-01-18 03:56 METAR KITH 180856Z AUTO 17003KT 10SM CLR M17/M19 A3006 RMK AO2 SLP201 T11721194
                 56010 =
2018-01-18 02:56 METAR KITH 180756Z AUTO 00000KT 10SM CLR M17/M19 A3007 RMK AO2 SLP205 T11671189
                 =
2018-01-18 01:56 METAR KITH 180656Z AUTO 15004KT 10SM CLR M16/M17 A3007 RMK AO2 SLP205 T11561172
                 =
2018-01-18 00:56 METAR KITH 180556Z AUTO 17004KT 10SM CLR M17/M19 A3009 RMK AO2 SLP212 T11721189
                 11122 21189 56020 =
2018-01-17 23:56 METAR KITH 180456Z AUTO 17003KT 10SM CLR M17/M18 A3010 RMK AO2 SLP218 T11671178
                 410391189 =
2018-01-17 22:56 METAR KITH 180356Z AUTO 00000KT 10SM CLR M19/M21 A3013 RMK AO2 SLP226 T11891206
                 =
2018-01-17 21:56 METAR KITH 180256Z 20003KT 10SM CLR M18/M21 A3015 RMK AO2 SLP234 T11831206 56022
                 =
2018-01-17 20:56 METAR KITH 180156Z 00000KT 10SM CLR M17/M19 A3017 RMK AO2 SLP241 T11671194 =

Support USWX by starting your Amazon purchase here.